createdAt,value
2019-03-25T00:01:43.684Z,97489.72
2019-03-25T00:06:40.470Z,97494.59
2019-03-25T00:11:37.264Z,97493.17
2019-03-25T00:16:33.944Z,97498.31
2019-03-25T00:21:30.619Z,97497.46
2019-03-25T00:26:31.305Z,97503.64
2019-03-25T00:31:28.026Z,97502.73
2019-03-25T00:36:24.718Z,97496.58
2019-03-25T00:41:24.006Z,97488.95
2019-03-25T00:46:20.787Z,97484.02
2019-03-25T00:51:18.944Z,97479.83
2019-03-25T00:56:15.639Z,97476.38
2019-03-25T01:01:12.953Z,97477.78
2019-03-25T01:06:09.975Z,97470.48
2019-03-25T01:11:06.820Z,97470.01
2019-03-25T01:16:03.941Z,97463.95
2019-03-25T01:21:00.619Z,97462.09
2019-03-25T01:25:57.517Z,97467.33
2019-03-25T01:30:54.371Z,97462.44
2019-03-25T01:35:51.172Z,97452.25
2019-03-25T01:40:48.007Z,97451.05
2019-03-25T01:45:44.819Z,97463.91
2019-03-25T01:50:41.605Z,97469.61
2019-03-25T01:55:38.272Z,97460.46
2019-03-25T02:00:35.189Z,97452.89
2019-03-25T02:05:31.839Z,97456.54
2019-03-25T02:10:28.580Z,97464.95
2019-03-25T02:15:25.256Z,97466.62
2019-03-25T02:20:26.746Z,97464.22
2019-03-25T02:25:25.230Z,97469.70
2019-03-25T02:30:21.794Z,97464.07
2019-03-25T02:35:18.613Z,97462.61
2019-03-25T02:40:15.606Z,97452.31
2019-03-25T02:45:12.465Z,97451.49
2019-03-25T02:50:09.837Z,97450.19
2019-03-25T02:55:06.900Z,97447.94
2019-03-25T03:00:06.093Z,97449.23
2019-03-25T03:05:02.870Z,97450.91
2019-03-25T03:09:59.521Z,97454.23
2019-03-25T03:14:56.286Z,97460.30
2019-03-25T03:19:56.148Z,97456.85
2019-03-25T03:24:52.895Z,97457.07
2019-03-25T03:29:49.832Z,97453.11
2019-03-25T03:34:46.835Z,97451.66
2019-03-25T03:39:43.589Z,97450.73
2019-03-25T03:44:40.421Z,97446.34
2019-03-25T03:49:37.162Z,97447.39
2019-03-25T03:54:34.313Z,97451.30
2019-03-25T03:59:30.964Z,97451.05
2019-03-25T04:04:27.776Z,97445.73
2019-03-25T04:09:24.463Z,97444.33
2019-03-25T04:14:21.103Z,97450.11
2019-03-25T04:19:19.396Z,97450.27
2019-03-25T04:24:17.468Z,97453.35
2019-03-25T04:29:14.240Z,97460.34
2019-03-25T04:34:10.945Z,97470.72
2019-03-25T04:39:08.992Z,97465.90
2019-03-25T04:44:05.703Z,97469.63
2019-03-25T04:49:02.376Z,97467.69
2019-03-25T04:54:14.605Z,97471.27
2019-03-25T04:59:10.906Z,97468.76
2019-03-25T05:04:09.653Z,97465.38
2019-03-25T05:09:10.217Z,97466.44
2019-03-25T05:14:07.075Z,97463.17
2019-03-25T05:19:03.889Z,97474.61
2019-03-25T05:24:06.663Z,97475.74
2019-03-25T05:29:03.462Z,97476.06
2019-03-25T05:34:00.542Z,97474.91
2019-03-25T05:38:57.289Z,97472.91
2019-03-25T05:43:54.259Z,97487.88
2019-03-25T05:48:53.468Z,97481.31
2019-03-25T05:53:50.412Z,97482.11
2019-03-25T05:58:47.156Z,97487.56
2019-03-25T06:03:44.087Z,97493.80
2019-03-25T06:08:40.712Z,97495.16
2019-03-25T06:13:37.416Z,97507.34
2019-03-25T06:18:34.125Z,97506.73
2019-03-25T06:23:33.702Z,97511.69
2019-03-25T06:28:30.590Z,97498.08
2019-03-25T06:33:29.411Z,97499.23
2019-03-25T06:38:25.878Z,97498.72
2019-03-25T06:43:25.788Z,97496.33
2019-03-25T06:48:22.599Z,97500.48
2019-03-25T06:53:19.458Z,97490.86
2019-03-25T06:58:16.188Z,97489.27
2019-03-25T07:03:15.636Z,97491.30
2019-03-25T07:08:12.449Z,97489.89
2019-03-25T07:13:13.725Z,97498.63
2019-03-25T07:18:13.210Z,97500.40
2019-03-25T07:23:10.008Z,97501.86
2019-03-25T07:28:06.806Z,97507.55
2019-03-25T07:33:03.873Z,97510.59
2019-03-25T07:38:05.527Z,97506.64
2019-03-25T07:43:02.185Z,97508.42
2019-03-25T07:48:10.576Z,97511.23
2019-03-25T07:53:14.015Z,97514.41
2019-03-25T07:58:39.403Z,97508.80
2019-03-25T08:03:40.218Z,97514.42
2019-03-25T08:08:40.015Z,97514.80
2019-03-25T08:13:38.286Z,97511.24
2019-03-25T08:18:38.986Z,97508.25
2019-03-25T08:23:38.548Z,97515.98
2019-03-25T08:28:39.601Z,97511.94
2019-03-25T08:33:42.316Z,97514.52
2019-03-25T08:38:42.075Z,97513.15
2019-03-25T08:43:45.325Z,97512.23
2019-03-25T08:48:42.336Z,97522.34
2019-03-25T08:53:39.506Z,97516.36
2019-03-25T08:58:36.518Z,97518.19
2019-03-25T09:03:33.531Z,97515.59
2019-03-25T09:08:30.275Z,97509.84
2019-03-25T09:13:31.897Z,97518.51
2019-03-25T09:18:28.693Z,97516.42
2019-03-25T09:23:33.939Z,97519.70
2019-03-25T09:28:30.999Z,97524.46
2019-03-25T09:33:28.054Z,97520.09
2019-03-25T09:38:34.199Z,97518.01
2019-03-25T09:43:33.346Z,97522.25
2019-03-25T09:48:47.472Z,97518.06
2019-03-25T09:53:55.691Z,97531.16
2019-03-25T09:59:07.881Z,97513.23
2019-03-25T10:04:07.464Z,97519.20
2019-03-25T10:09:08.466Z,97523.42
2019-03-25T10:14:18.663Z,97517.63
2019-03-25T10:19:22.120Z,97527.42
2019-03-25T10:24:19.219Z,97528.80
2019-03-25T10:29:22.693Z,97531.03
2019-03-25T10:34:42.402Z,97528.83
2019-03-25T10:39:44.187Z,97541.19
2019-03-25T10:44:40.998Z,97527.44
2019-03-25T10:49:42.278Z,97520.93
2019-03-25T11:19:31.964Z,97516.04
2019-03-25T11:30:34.481Z,97519.31
2019-03-25T11:42:31.313Z,97504.75
2019-03-25T11:48:35.699Z,97501.37
2019-03-25T11:59:31.917Z,97506.74
2019-03-25T12:04:51.453Z,97525.54
2019-03-25T12:10:38.307Z,97524.47
2019-03-25T12:15:44.978Z,97529.53
2019-03-25T12:31:54.866Z,97518.62
2019-03-25T12:36:55.554Z,97509.13
2019-03-25T12:42:03.980Z,97507.39
2019-03-25T12:47:06.907Z,97498.67
2019-03-25T12:52:12.140Z,97498.77
2019-03-25T12:57:16.569Z,97492.52
2019-03-25T13:02:19.909Z,97497.69
2019-03-25T13:07:18.121Z,97487.39
2019-03-25T13:12:17.419Z,97486.56
2019-03-25T13:17:45.009Z,97492.99
2019-03-25T13:22:41.832Z,97500.52
2019-03-25T13:27:41.787Z,97490.28
2019-03-25T13:32:41.268Z,97493.70
2019-03-25T13:37:46.031Z,97492.41
2019-03-25T13:42:47.911Z,97492.09
2019-03-25T13:47:44.908Z,97483.23
2019-03-25T13:52:43.941Z,97485.96
2019-03-25T13:57:58.285Z,97478.11
2019-03-25T14:02:57.340Z,97471.95
2019-03-25T14:07:54.253Z,97463.67
2019-03-25T14:12:53.897Z,97471.28
2019-03-25T14:23:28.997Z,97477.05
2019-03-25T14:28:35.142Z,97484.17
2019-03-25T14:33:43.952Z,97501.50
2019-03-25T14:38:40.623Z,97515.27
2019-03-25T14:43:39.500Z,97506.16
2019-03-25T14:48:46.825Z,97503.14
2019-03-25T14:53:48.813Z,97498.07
2019-03-25T14:58:51.498Z,97504.50
2019-03-25T15:03:50.061Z,97491.13
2019-03-25T15:08:54.564Z,97496.06
2019-03-25T15:13:51.297Z,97498.99
2019-03-25T15:18:48.030Z,97500.94
2019-03-25T15:24:04.340Z,97519.48
2019-03-25T15:29:23.452Z,97524.64
2019-03-25T15:34:29.474Z,97548.25
2019-03-25T15:39:47.029Z,97550.58
2019-03-25T15:44:59.695Z,97554.13
2019-03-25T15:49:57.018Z,97546.73
2019-03-25T15:54:54.893Z,97546.65
2019-03-25T15:59:51.541Z,97558.33
2019-03-25T16:04:48.275Z,97558.81
2019-03-25T16:09:44.907Z,97556.91
2019-03-25T16:14:41.701Z,97559.95
2019-03-25T16:19:38.749Z,97572.30
2019-03-25T16:24:35.518Z,97577.52
2019-03-25T16:29:36.717Z,97583.28
2019-03-25T16:34:41.657Z,97591.41
2019-03-25T16:39:42.335Z,97580.66
2019-03-25T16:44:41.299Z,97579.47
2019-03-25T16:49:40.888Z,97592.89
2019-03-25T16:54:37.731Z,97588.33
2019-03-25T16:59:35.543Z,97593.39
2019-03-25T17:04:39.207Z,97600.15
2019-03-25T18:20:03.665Z,97742.29
2019-03-25T18:25:00.491Z,97721.53
2019-03-25T18:29:57.307Z,97732.53
2019-03-25T18:34:56.267Z,97740.97
2019-03-25T18:39:52.984Z,97740.45
2019-03-25T18:44:59.743Z,97732.13
2019-03-25T18:57:11.486Z,97721.88
2019-03-25T19:02:12.303Z,97751.28
2019-03-25T19:07:08.997Z,97752.98
2019-03-25T19:12:06.196Z,97759.77
2019-03-25T19:17:05.259Z,97767.69
2019-03-25T19:22:01.284Z,97776.80
2019-03-25T19:26:57.998Z,97776.08
2019-03-25T19:32:05.890Z,97778.55
2019-03-25T19:36:53.296Z,97773.67
2019-03-25T19:41:50.006Z,97773.27
2019-03-25T19:46:46.757Z,97791.14
2019-03-25T19:51:43.631Z,97780.88
2019-03-25T19:56:40.262Z,97788.08
2019-03-25T20:01:37.008Z,97783.39
2019-03-25T20:06:33.823Z,97780.70
2019-03-25T20:11:30.575Z,97785.05
2019-03-25T20:16:27.252Z,97794.98
2019-03-25T20:21:23.970Z,97789.01
2019-03-25T20:26:20.698Z,97787.67
2019-03-25T20:31:17.623Z,97786.08
2019-03-25T20:36:14.592Z,97798.00
2019-03-25T20:41:11.255Z,97816.53
2019-03-25T20:46:07.994Z,97816.70
2019-03-25T20:51:04.799Z,97820.02
2019-03-25T20:56:01.533Z,97821.27
2019-03-25T21:00:59.419Z,97826.20
2019-03-25T21:05:56.119Z,97828.36
2019-03-25T21:10:55.244Z,97827.86
2019-03-25T21:15:51.895Z,97832.22
2019-03-25T21:20:48.569Z,97828.17
2019-03-25T21:25:45.516Z,97823.84
2019-03-25T21:30:47.917Z,97812.74
2019-03-25T21:35:41.075Z,97807.97
2019-03-25T21:40:37.824Z,97815.69
2019-03-25T21:45:34.768Z,97817.11
2019-03-25T21:50:31.523Z,97821.55
2019-03-25T21:55:28.235Z,97816.96
2019-03-25T22:00:24.910Z,97818.67
2019-03-25T22:05:21.589Z,97811.17
2019-03-25T22:10:18.314Z,97812.94
2019-03-25T22:15:16.867Z,97811.17
2019-03-25T22:20:14.027Z,97821.86
2019-03-25T22:25:11.350Z,97825.10
2019-03-25T22:30:11.716Z,97823.73
2019-03-25T22:35:08.484Z,97828.55
2019-03-25T22:40:05.296Z,97831.99
2019-03-25T22:45:01.912Z,97828.02
2019-03-25T22:49:58.677Z,97829.55
2019-03-25T22:54:55.334Z,97830.77
2019-03-25T22:59:52.139Z,97831.08
2019-03-25T23:04:48.957Z,97834.02
2019-03-25T23:09:48.630Z,97837.14
2019-03-25T23:14:45.382Z,97845.05
2019-03-25T23:19:42.006Z,97843.53
2019-03-25T23:24:38.655Z,97841.70
2019-03-25T23:29:35.233Z,97846.23
2019-03-25T23:34:32.076Z,97838.64
2019-03-25T23:39:28.779Z,97844.31
2019-03-25T23:44:25.556Z,97855.27
2019-03-25T23:49:22.213Z,97868.45
2019-03-25T23:54:18.890Z,97866.33
2019-03-25T23:59:15.567Z,97863.66
